createdAt,value
2018-08-06T00:00:09.728Z,0
2018-08-06T00:01:18.375Z,0
2018-08-06T00:02:27.305Z,0
2018-08-06T00:03:35.949Z,0
2018-08-06T00:04:44.593Z,0
2018-08-06T00:05:53.249Z,0
2018-08-06T00:07:01.891Z,0
2018-08-06T00:08:10.546Z,0
2018-08-06T00:09:19.445Z,0
2018-08-06T00:10:28.106Z,0
2018-08-06T00:11:36.749Z,0
2018-08-06T00:12:45.675Z,0
2018-08-06T00:13:54.317Z,0
2018-08-06T00:15:02.969Z,0
2018-08-06T00:16:11.613Z,0
2018-08-06T00:17:20.260Z,0
2018-08-06T00:18:28.896Z,0
2018-08-06T00:19:37.548Z,0
2018-08-06T00:20:46.197Z,0
2018-08-06T00:21:54.845Z,0
2018-08-06T00:23:03.759Z,0
2018-08-06T00:24:12.396Z,0
2018-08-06T00:25:21.045Z,0
2018-08-06T00:26:29.688Z,0
2018-08-06T00:27:38.344Z,0
2018-08-06T00:28:46.986Z,0
2018-08-06T00:29:55.629Z,0
2018-08-06T00:31:04.280Z,0
2018-08-06T00:32:12.918Z,0
2018-08-06T00:33:21.572Z,0
2018-08-06T00:34:30.214Z,0
2018-08-06T00:35:38.864Z,0
2018-08-06T00:36:47.760Z,0
2018-08-06T00:37:56.680Z,0
2018-08-06T00:39:05.329Z,0
2018-08-06T00:40:14.257Z,0
2018-08-06T00:41:23.172Z,0
2018-08-06T00:42:31.812Z,0
2018-08-06T00:43:40.719Z,0
2018-08-06T00:44:49.404Z,0
2018-08-06T00:45:58.318Z,0
2018-08-06T00:47:06.956Z,0
2018-08-06T00:48:15.629Z,0
2018-08-06T00:49:24.514Z,0
2018-08-06T00:50:33.168Z,0
2018-08-06T00:51:41.809Z,0
2018-08-06T00:52:50.723Z,0
2018-08-06T00:53:59.631Z,0
2018-08-06T00:55:08.287Z,0
2018-08-06T00:56:16.933Z,0
2018-08-06T00:57:25.580Z,0
2018-08-06T00:58:34.223Z,0
2018-08-06T00:59:42.873Z,0
2018-08-06T01:00:52.056Z,0
2018-08-06T01:02:00.971Z,0
2018-08-06T01:03:09.621Z,0
2018-08-06T01:04:18.260Z,0
2018-08-06T01:05:26.917Z,0
2018-08-06T01:06:35.558Z,0
2018-08-06T01:07:44.237Z,0
2018-08-06T01:08:52.849Z,0
2018-08-06T01:10:01.760Z,0
2018-08-06T01:11:10.404Z,0
2018-08-06T01:12:19.312Z,0
2018-08-06T01:13:27.952Z,0
2018-08-06T01:14:36.601Z,0
2018-08-06T01:15:45.252Z,0
2018-08-06T01:16:53.900Z,0
2018-08-06T01:18:02.547Z,0
2018-08-06T01:19:11.446Z,0
2018-08-06T01:20:20.361Z,0
2018-08-06T01:21:29.001Z,0
2018-08-06T01:22:37.929Z,0
2018-08-06T01:23:46.567Z,0
2018-08-06T01:24:55.218Z,0
2018-08-06T01:26:03.862Z,0
2018-08-06T01:27:12.511Z,0
2018-08-06T01:28:21.149Z,0
2018-08-06T01:29:29.797Z,0
2018-08-06T01:30:38.440Z,0
2018-08-06T01:31:47.091Z,0
2018-08-06T01:32:55.733Z,0
2018-08-06T01:34:04.380Z,0
2018-08-06T01:35:13.022Z,0
2018-08-06T01:36:21.931Z,0
2018-08-06T01:37:30.580Z,0
2018-08-06T01:38:39.226Z,0
2018-08-06T01:39:47.871Z,0
2018-08-06T01:40:56.516Z,0
2018-08-06T01:42:05.167Z,0
2018-08-06T01:43:13.809Z,0
2018-08-06T01:44:22.455Z,0
2018-08-06T01:45:31.093Z,0
2018-08-06T01:46:39.744Z,0
2018-08-06T01:47:48.387Z,0
2018-08-06T01:48:57.034Z,0
2018-08-06T01:50:05.676Z,0
2018-08-06T01:51:14.321Z,0
2018-08-06T01:52:22.964Z,0
2018-08-06T01:53:31.612Z,0
2018-08-06T01:54:40.262Z,0
2018-08-06T01:55:48.902Z,0
2018-08-06T01:56:57.547Z,0
2018-08-06T01:58:06.191Z,0
2018-08-06T01:59:14.844Z,0
2018-08-06T02:00:23.484Z,0
2018-08-06T02:01:32.131Z,0
2018-08-06T02:02:40.777Z,0
2018-08-06T02:03:49.689Z,0
2018-08-06T02:04:58.338Z,0
2018-08-06T02:06:06.987Z,0
2018-08-06T02:07:15.633Z,0
2018-08-06T02:08:24.278Z,0
2018-08-06T02:09:33.190Z,0
2018-08-06T02:10:41.835Z,0
2018-08-06T02:11:50.479Z,0
2018-08-06T02:12:59.123Z,0
2018-08-06T02:14:08.045Z,0
2018-08-06T02:15:16.692Z,0
2018-08-06T02:16:25.601Z,0
2018-08-06T02:17:34.243Z,0
2018-08-06T02:18:43.155Z,0
2018-08-06T02:19:51.799Z,0
2018-08-06T02:21:00.440Z,0
2018-08-06T02:22:09.082Z,0
2018-08-06T02:23:17.733Z,0
2018-08-06T02:24:26.375Z,0
2018-08-06T02:25:35.026Z,0
2018-08-06T02:26:43.660Z,0
2018-08-06T02:27:52.310Z,0
2018-08-06T02:29:00.960Z,0
2018-08-06T02:30:09.612Z,0
2018-08-06T02:31:18.528Z,0
2018-08-06T02:32:27.430Z,0
2018-08-06T02:33:36.346Z,0
2018-08-06T02:34:44.991Z,0
2018-08-06T02:35:53.652Z,0
2018-08-06T02:37:02.559Z,0
2018-08-06T02:38:11.471Z,0
2018-08-06T02:39:20.111Z,0
2018-08-06T02:40:29.055Z,0
2018-08-06T02:41:37.967Z,0
2018-08-06T02:42:46.603Z,0
2018-08-06T02:43:55.246Z,0
2018-08-06T02:45:04.186Z,0
2018-08-06T02:46:13.093Z,0
2018-08-06T02:47:21.734Z,0
2018-08-06T02:48:30.374Z,0
2018-08-06T02:49:39.020Z,0
2018-08-06T02:50:47.936Z,0
2018-08-06T02:51:56.838Z,0
2018-08-06T02:53:05.753Z,0
2018-08-06T02:54:14.388Z,0
2018-08-06T02:55:23.044Z,0
2018-08-06T02:56:31.944Z,0
2018-08-06T02:57:40.595Z,0
2018-08-06T02:58:49.237Z,0
2018-08-06T02:59:57.889Z,0
2018-08-06T03:01:06.532Z,0
2018-08-06T03:02:15.179Z,0
2018-08-06T03:03:23.815Z,0
2018-08-06T03:04:32.464Z,0
2018-08-06T03:05:41.112Z,0
2018-08-06T03:06:49.758Z,0
2018-08-06T03:07:58.404Z,0
2018-08-06T03:09:07.041Z,0
2018-08-06T03:10:16.090Z,0
2018-08-06T03:11:25.256Z,0
2018-08-06T03:12:33.911Z,0
2018-08-06T03:13:42.544Z,0
2018-08-06T03:14:51.192Z,0
2018-08-06T03:15:59.836Z,0
2018-08-06T03:17:08.869Z,0
2018-08-06T03:18:17.504Z,0
2018-08-06T03:19:26.151Z,0
2018-08-06T03:20:34.796Z,0
2018-08-06T03:21:43.450Z,4
2018-08-06T03:22:52.094Z,4
2018-08-06T03:24:00.733Z,0
2018-08-06T03:25:09.380Z,0
2018-08-06T03:26:18.286Z,4
2018-08-06T03:27:26.936Z,4
2018-08-06T03:28:35.841Z,4
2018-08-06T03:29:44.551Z,4
2018-08-06T03:30:53.127Z,4
2018-08-06T03:32:02.049Z,8
2018-08-06T03:33:10.693Z,8
2018-08-06T03:34:19.340Z,8
2018-08-06T03:35:27.979Z,8
2018-08-06T03:36:36.627Z,12
2018-08-06T03:37:45.268Z,12
2018-08-06T03:38:53.920Z,16
2018-08-06T03:40:02.588Z,20
2018-08-06T03:41:11.204Z,20
2018-08-06T03:42:19.852Z,24
2018-08-06T03:43:28.497Z,28
2018-08-06T03:44:37.408Z,36
2018-08-06T03:45:46.048Z,36
2018-08-06T03:46:54.692Z,44
2018-08-06T03:48:03.337Z,52
2018-08-06T03:49:11.987Z,56
2018-08-06T03:50:20.624Z,64
2018-08-06T03:51:29.270Z,72
2018-08-06T03:52:38.284Z,80
2018-08-06T03:53:47.265Z,88
2018-08-06T03:54:55.906Z,96
2018-08-06T03:56:04.553Z,108
2018-08-06T03:57:13.195Z,116
2018-08-06T03:58:21.843Z,128
2018-08-06T03:59:30.483Z,140
2018-08-06T04:00:39.123Z,152
2018-08-06T04:01:47.770Z,164
2018-08-06T04:02:56.408Z,176
2018-08-06T04:04:05.058Z,188
2018-08-06T04:05:13.702Z,204
2018-08-06T04:06:22.608Z,216
2018-08-06T04:07:31.248Z,228
2018-08-06T04:08:39.899Z,244
2018-08-06T04:09:48.542Z,260
2018-08-06T04:10:57.188Z,272
2018-08-06T04:12:05.833Z,288
2018-08-06T04:13:14.478Z,300
2018-08-06T04:14:23.121Z,316
2018-08-06T04:15:31.770Z,332
2018-08-06T04:16:40.408Z,348
2018-08-06T04:17:49.062Z,364
2018-08-06T04:18:57.709Z,380
2018-08-06T04:20:06.355Z,396
2018-08-06T04:21:15.000Z,412
2018-08-06T04:22:23.902Z,428
2018-08-06T04:23:32.811Z,440
2018-08-06T04:24:41.456Z,460
2018-08-06T04:25:50.095Z,472
2018-08-06T04:26:58.741Z,488
2018-08-06T04:28:07.386Z,500
2018-08-06T04:29:16.029Z,516
2018-08-06T04:30:24.667Z,532
2018-08-06T04:31:33.358Z,544
2018-08-06T04:32:42.005Z,560
2018-08-06T04:33:50.969Z,580
2018-08-06T04:34:59.606Z,592
2018-08-06T04:36:08.255Z,608
2018-08-06T04:37:16.899Z,624
2018-08-06T04:38:25.600Z,636
2018-08-06T04:39:34.191Z,648
2018-08-06T04:40:42.832Z,660
2018-08-06T04:41:51.479Z,664
2018-08-06T04:43:00.122Z,672
2018-08-06T04:44:08.771Z,684
2018-08-06T04:45:17.415Z,696
2018-08-06T04:46:26.324Z,704
2018-08-06T04:47:34.964Z,716
2018-08-06T04:48:43.873Z,728
2018-08-06T04:49:52.515Z,736
2018-08-06T04:51:01.162Z,748
2018-08-06T04:52:09.800Z,760
2018-08-06T04:53:18.452Z,768
2018-08-06T04:54:27.092Z,780
2018-08-06T04:55:35.735Z,788
2018-08-06T04:56:44.377Z,800
2018-08-06T04:57:53.020Z,812
2018-08-06T04:59:01.667Z,824
2018-08-06T05:00:10.315Z,840
2018-08-06T05:01:18.958Z,860
2018-08-06T05:02:27.598Z,880
2018-08-06T05:03:36.243Z,920
2018-08-06T05:04:44.887Z,960
2018-08-06T05:05:53.533Z,1020
2018-08-06T05:07:02.245Z,1108
2018-08-06T05:08:10.825Z,1228
2018-08-06T05:09:19.995Z,1380
2018-08-06T05:10:28.639Z,1560
2018-08-06T05:11:37.543Z,1712
2018-08-06T05:12:46.195Z,1836
2018-08-06T05:13:54.838Z,1912
2018-08-06T05:15:03.488Z,1956
2018-08-06T05:16:12.132Z,1996
2018-08-06T05:17:20.770Z,2040
2018-08-06T05:18:29.414Z,2076
2018-08-06T05:19:38.066Z,2100
2018-08-06T05:20:46.709Z,2096
2018-08-06T05:21:55.350Z,2064
2018-08-06T05:23:03.999Z,2004
2018-08-06T05:24:12.640Z,1924
2018-08-06T05:25:21.302Z,1852
2018-08-06T05:26:29.937Z,1784
2018-08-06T05:27:38.584Z,1720
2018-08-06T05:28:47.228Z,1668
2018-08-06T05:29:55.885Z,1608
2018-08-06T05:31:04.526Z,1532
2018-08-06T05:32:13.171Z,1456
2018-08-06T05:33:22.080Z,1340
2018-08-06T05:34:30.723Z,1148
2018-08-06T05:35:39.378Z,1060
2018-08-06T05:36:48.279Z,976
2018-08-06T05:37:56.928Z,940
2018-08-06T05:39:05.565Z,888
2018-08-06T05:40:14.219Z,916
2018-08-06T05:41:23.148Z,992
2018-08-06T05:42:32.062Z,972
2018-08-06T05:43:40.700Z,1044
2018-08-06T05:44:49.354Z,1268
2018-08-06T05:45:58.000Z,1328
2018-08-06T05:47:06.647Z,1296
2018-08-06T05:48:15.600Z,1348
2018-08-06T05:49:24.203Z,1360
2018-08-06T05:50:32.855Z,1364
2018-08-06T05:51:41.502Z,1376
2018-08-06T05:52:50.421Z,1380
2018-08-06T05:53:59.063Z,1388
2018-08-06T05:55:07.710Z,1396
2018-08-06T05:56:16.350Z,1412
2018-08-06T05:57:25.004Z,1424
2018-08-06T05:58:33.641Z,1428
2018-08-06T05:59:42.290Z,1436
2018-08-06T06:00:51.217Z,1444
2018-08-06T06:01:59.861Z,1452
2018-08-06T06:03:08.498Z,1468
2018-08-06T06:04:17.143Z,1472
2018-08-06T06:05:25.785Z,1480
2018-08-06T06:06:34.440Z,1488
2018-08-06T06:07:43.086Z,1496
2018-08-06T06:08:51.728Z,1504
2018-08-06T06:10:00.634Z,1508
2018-08-06T06:11:09.277Z,1516
2018-08-06T06:12:17.932Z,1524
2018-08-06T06:13:26.579Z,1528
2018-08-06T06:14:35.230Z,1536
2018-08-06T06:15:43.865Z,1544
2018-08-06T06:16:52.529Z,1552
2018-08-06T06:18:01.170Z,1564
2018-08-06T06:19:09.904Z,1572
2018-08-06T06:20:18.728Z,1568
2018-08-06T06:21:27.373Z,1576
2018-08-06T06:22:36.018Z,1588
2018-08-06T06:23:44.660Z,1604
2018-08-06T06:24:53.316Z,1600
2018-08-06T06:26:02.226Z,1608
2018-08-06T06:27:10.872Z,1608
2018-08-06T06:28:19.513Z,1608
2018-08-06T06:29:28.474Z,1620
2018-08-06T06:30:37.070Z,1632
2018-08-06T06:31:45.983Z,1632
2018-08-06T06:32:54.629Z,1652
2018-08-06T06:34:03.272Z,1652
2018-08-06T06:35:11.928Z,1656
2018-08-06T06:36:20.575Z,1652
2018-08-06T06:37:29.223Z,1664
2018-08-06T06:38:37.864Z,1676
2018-08-06T06:39:46.516Z,1684
2018-08-06T06:40:55.188Z,1692
2018-08-06T06:42:03.840Z,1704
2018-08-06T06:43:12.488Z,1716
2018-08-06T06:44:21.137Z,1708
2018-08-06T06:45:29.788Z,1716
2018-08-06T06:46:38.707Z,1720
2018-08-06T06:47:47.622Z,1732
2018-08-06T06:48:56.651Z,1736
2018-08-06T06:50:05.275Z,1744
2018-08-06T06:51:13.921Z,1748
2018-08-06T06:52:22.574Z,1764
2018-08-06T06:53:31.216Z,1772
2018-08-06T06:54:40.348Z,1776
2018-08-06T06:55:49.000Z,1788
2018-08-06T06:56:58.191Z,1800
2018-08-06T06:58:06.833Z,1800
2018-08-06T06:59:15.481Z,1800
2018-08-06T07:00:24.125Z,1808
2018-08-06T07:01:32.775Z,1820
2018-08-06T07:02:41.419Z,1820
2018-08-06T07:03:50.066Z,1836
2018-08-06T07:04:58.709Z,1836
2018-08-06T07:06:07.358Z,1840
2018-08-06T07:07:16.010Z,1848
2018-08-06T07:08:24.658Z,1856
2018-08-06T07:09:33.305Z,1860
2018-08-06T07:10:41.948Z,1868
2018-08-06T07:11:50.598Z,1872
2018-08-06T07:12:59.244Z,1876
2018-08-06T07:14:07.980Z,1880
2018-08-06T07:15:16.537Z,1884
2018-08-06T07:16:25.190Z,1884
2018-08-06T07:17:33.839Z,1888
2018-08-06T07:18:42.492Z,1896
2018-08-06T07:19:51.130Z,1896
2018-08-06T07:21:00.310Z,1904
2018-08-06T07:22:08.963Z,1908
2018-08-06T07:23:17.878Z,1916
2018-08-06T07:24:26.529Z,1912
2018-08-06T07:25:35.166Z,1916
2018-08-06T07:26:43.819Z,1920
2018-08-06T07:27:52.726Z,1920
2018-08-06T07:29:01.384Z,1932
2018-08-06T07:30:10.033Z,1932
2018-08-06T07:31:18.686Z,1940
2018-08-06T07:32:27.329Z,1940
2018-08-06T07:33:36.008Z,1936
2018-08-06T07:34:44.626Z,1940
2018-08-06T07:35:53.275Z,1948
2018-08-06T07:37:02.225Z,1952
2018-08-06T07:38:11.010Z,1956
2018-08-06T07:39:19.660Z,1956
2018-08-06T07:40:28.303Z,1964
2018-08-06T07:41:36.949Z,1964
2018-08-06T07:42:45.631Z,1964
2018-08-06T07:43:54.256Z,1972
2018-08-06T07:45:03.163Z,1988
2018-08-06T07:46:11.814Z,1980
2018-08-06T07:47:20.454Z,1988
2018-08-06T07:48:29.114Z,1980
2018-08-06T07:49:38.250Z,1992
2018-08-06T07:50:46.854Z,2000
2018-08-06T07:51:55.514Z,2004
2018-08-06T07:53:04.441Z,2004
2018-08-06T07:54:14.089Z,2012
2018-08-06T07:55:22.843Z,2008
2018-08-06T07:56:31.482Z,2020
2018-08-06T07:57:40.135Z,2032
2018-08-06T07:58:48.790Z,2032
2018-08-06T07:59:57.442Z,2032
2018-08-06T08:01:06.097Z,2040
2018-08-06T08:02:14.737Z,2044
2018-08-06T08:03:23.392Z,2044
2018-08-06T08:04:32.037Z,2060
2018-08-06T08:05:40.896Z,2060
2018-08-06T08:06:49.536Z,2068
2018-08-06T08:07:58.197Z,2072
2018-08-06T08:09:06.841Z,2068
2018-08-06T08:10:16.265Z,2088
2018-08-06T08:11:25.210Z,2100
2018-08-06T08:12:33.872Z,2096
2018-08-06T08:13:42.585Z,2104
2018-08-06T08:14:51.587Z,2096
2018-08-06T08:16:00.853Z,2104
2018-08-06T08:17:09.716Z,2112
2018-08-06T08:18:18.593Z,2120
2018-08-06T08:19:27.426Z,2128
2018-08-06T08:20:36.131Z,2144
2018-08-06T08:21:45.280Z,2136
2018-08-06T08:22:54.069Z,2144
2018-08-06T08:24:02.781Z,2152
2018-08-06T08:25:11.419Z,2172
2018-08-06T08:26:20.080Z,2176
2018-08-06T08:27:28.723Z,2192
2018-08-06T08:28:37.384Z,2200
2018-08-06T08:29:46.025Z,2196
2018-08-06T08:30:54.956Z,2204
2018-08-06T08:32:03.879Z,2208
2018-08-06T08:33:12.537Z,2220
2018-08-06T08:34:21.196Z,2224
2018-08-06T08:35:29.836Z,2228
2018-08-06T08:36:38.482Z,2236
2018-08-06T08:37:47.130Z,2240
2018-08-06T08:38:55.788Z,2248
2018-08-06T08:40:04.436Z,2260
2018-08-06T08:41:13.092Z,2276
2018-08-06T08:42:21.996Z,2284
2018-08-06T08:43:30.657Z,2292
2018-08-06T08:44:39.619Z,2304
2018-08-06T08:45:48.280Z,2308
2018-08-06T08:46:56.920Z,2312
2018-08-06T08:48:05.846Z,2324
2018-08-06T08:49:14.495Z,2332
2018-08-06T08:50:23.409Z,2320
2018-08-06T08:51:32.053Z,2316
2018-08-06T08:52:40.707Z,2324
2018-08-06T08:53:51.229Z,2332
2018-08-06T08:54:59.885Z,2324
2018-08-06T08:56:08.572Z,2332
2018-08-06T08:57:17.211Z,2332
2018-08-06T08:58:25.868Z,2332
2018-08-06T08:59:34.583Z,2344
2018-08-06T09:00:43.244Z,2336
2018-08-06T09:01:52.148Z,2348
2018-08-06T09:03:01.067Z,2336
2018-08-06T09:04:09.714Z,2340
2018-08-06T09:05:18.377Z,2348
2018-08-06T09:06:27.281Z,2344
2018-08-06T09:07:35.935Z,2352
2018-08-06T09:08:44.586Z,2340
2018-08-06T09:09:53.254Z,2348
2018-08-06T09:11:01.903Z,2348
2018-08-06T09:12:10.547Z,2344
2018-08-06T09:13:19.194Z,2340
2018-08-06T09:14:28.111Z,2340
2018-08-06T09:15:36.776Z,2344
2018-08-06T09:16:45.419Z,2352
2018-08-06T09:17:54.068Z,2344
2018-08-06T09:19:02.720Z,2344
2018-08-06T09:20:11.372Z,2344
2018-08-06T09:21:20.117Z,2348
2018-08-06T09:22:28.676Z,2344
2018-08-06T09:23:37.582Z,2344
2018-08-06T09:24:46.240Z,2344
2018-08-06T09:25:54.898Z,2352
2018-08-06T09:27:03.816Z,2348
2018-08-06T09:28:12.460Z,2356
2018-08-06T09:29:21.113Z,2360
2018-08-06T09:30:29.763Z,2360
2018-08-06T09:31:38.417Z,2380
2018-08-06T09:32:47.074Z,2376
2018-08-06T09:33:56.055Z,2360
2018-08-06T09:35:04.977Z,2372
2018-08-06T09:36:13.631Z,2368
2018-08-06T09:37:22.288Z,2376
2018-08-06T09:38:30.936Z,2324
2018-08-06T09:39:39.587Z,2324
2018-08-06T09:40:48.239Z,2256
2018-08-06T09:41:56.895Z,2384
2018-08-06T09:43:05.803Z,2392
2018-08-06T09:44:14.459Z,2392
2018-08-06T09:45:23.111Z,2404
2018-08-06T09:46:31.761Z,2408
2018-08-06T09:47:40.414Z,2408
2018-08-06T09:48:49.065Z,2408
2018-08-06T09:49:57.714Z,2420
2018-08-06T09:51:06.364Z,2420
2018-08-06T09:52:18.899Z,2420
2018-08-06T09:53:29.846Z,2432
2018-08-06T09:54:38.500Z,2440
2018-08-06T09:55:47.148Z,2444
2018-08-06T09:56:55.802Z,2452
2018-08-06T09:58:04.726Z,2460
2018-08-06T09:59:13.380Z,2464
2018-08-06T10:00:22.296Z,2476
2018-08-06T10:01:31.211Z,2480
2018-08-06T10:02:40.123Z,2480
2018-08-06T10:03:48.790Z,2484
2018-08-06T10:04:57.437Z,2492
2018-08-06T10:06:06.714Z,2508
2018-08-06T10:07:15.259Z,2512
2018-08-06T10:08:23.918Z,2512
2018-08-06T10:09:32.832Z,2524
2018-08-06T10:10:41.481Z,2528
2018-08-06T10:11:50.137Z,2528
2018-08-06T10:12:58.785Z,2536
2018-08-06T10:14:07.443Z,2544
2018-08-06T10:15:16.089Z,2548
2018-08-06T10:16:24.748Z,2556
2018-08-06T10:17:33.659Z,2580
2018-08-06T10:18:42.329Z,2580
2018-08-06T10:19:50.962Z,2580
2018-08-06T10:20:59.617Z,2588
2018-08-06T10:22:08.268Z,2584
2018-08-06T10:23:17.202Z,2596
2018-08-06T10:24:25.876Z,2600
2018-08-06T10:25:34.505Z,2596
2018-08-06T10:26:43.413Z,2616
2018-08-06T10:27:52.065Z,2624
2018-08-06T10:29:00.731Z,2628
2018-08-06T10:30:09.401Z,2640
2018-08-06T10:31:18.033Z,2644
2018-08-06T10:32:26.674Z,2668
2018-08-06T10:33:35.368Z,2672
2018-08-06T10:34:44.016Z,2688
2018-08-06T10:35:52.941Z,2704
2018-08-06T10:37:01.588Z,2716
2018-08-06T10:38:10.479Z,2716
2018-08-06T10:39:19.619Z,2732
2018-08-06T10:40:28.307Z,2748
2018-08-06T10:41:37.227Z,2756
2018-08-06T10:42:45.843Z,2764
2018-08-06T10:43:54.466Z,2776
2018-08-06T10:45:03.083Z,2788
2018-08-06T10:46:11.702Z,2800
2018-08-06T10:47:20.325Z,2816
2018-08-06T10:48:29.433Z,2820
2018-08-06T10:49:37.970Z,2828
2018-08-06T10:50:46.587Z,2828
2018-08-06T10:51:55.208Z,2836
2018-08-06T10:53:04.352Z,2840
2018-08-06T10:54:12.971Z,2852
2018-08-06T10:55:21.593Z,2864
2018-08-06T10:56:30.472Z,2868
2018-08-06T10:57:39.093Z,2868
2018-08-06T10:58:47.716Z,2872
2018-08-06T10:59:56.330Z,2872
2018-08-06T11:01:04.950Z,2876
2018-08-06T11:02:13.568Z,2876
2018-08-06T11:03:22.193Z,2892
2018-08-06T11:04:30.811Z,2896
2018-08-06T11:05:39.431Z,2896
2018-08-06T11:06:48.049Z,2896
2018-08-06T11:07:56.964Z,2904
2018-08-06T11:09:05.849Z,2904
2018-08-06T11:10:14.467Z,2900
2018-08-06T11:11:23.084Z,2912
2018-08-06T11:12:31.707Z,2912
2018-08-06T11:13:40.331Z,2904
2018-08-06T11:14:48.945Z,2912
2018-08-06T11:15:57.572Z,2916
2018-08-06T11:17:06.186Z,2920
2018-08-06T11:18:15.065Z,2932
2018-08-06T11:19:23.684Z,2920
2018-08-06T11:20:32.600Z,2932
2018-08-06T11:21:41.534Z,2932
2018-08-06T11:22:50.155Z,2944
2018-08-06T11:23:59.038Z,2948
2018-08-06T11:25:07.653Z,2948
2018-08-06T11:26:16.278Z,2948
2018-08-06T11:27:24.890Z,2952
2018-08-06T11:28:33.579Z,2956
2018-08-06T11:29:42.134Z,2952
2018-08-06T11:30:50.757Z,2960
2018-08-06T11:31:59.373Z,2960
2018-08-06T11:33:08.000Z,2960
2018-08-06T11:34:16.623Z,2964
2018-08-06T11:35:25.503Z,2980
2018-08-06T11:36:34.117Z,2976
2018-08-06T11:37:42.995Z,2976
2018-08-06T11:38:51.617Z,2976
2018-08-06T11:40:00.240Z,2976
2018-08-06T11:41:08.862Z,2972
2018-08-06T11:42:17.735Z,2988
2018-08-06T11:43:26.359Z,2992
2018-08-06T11:44:34.976Z,2988
2018-08-06T11:45:43.601Z,2984
2018-08-06T11:46:52.215Z,2976
2018-08-06T11:48:00.841Z,2976
2018-08-06T11:49:09.713Z,2984
2018-08-06T11:50:18.601Z,2984
2018-08-06T11:51:27.216Z,3000
2018-08-06T11:52:35.838Z,3020
2018-08-06T11:53:44.717Z,2996
2018-08-06T11:54:53.604Z,3000
2018-08-06T11:56:02.230Z,3008
2018-08-06T11:57:10.844Z,3012
2018-08-06T11:58:19.722Z,3012
2018-08-06T11:59:28.344Z,3004
2018-08-06T12:00:36.967Z,3008
2018-08-06T12:01:45.592Z,3024
2018-08-06T12:02:54.483Z,3016
2018-08-06T12:04:03.107Z,3024
2018-08-06T12:05:11.729Z,3000
2018-08-06T12:06:20.345Z,2988
2018-08-06T12:07:29.229Z,2988
2018-08-06T12:08:37.988Z,3004
2018-08-06T12:09:46.482Z,3004
2018-08-06T12:10:55.368Z,3012
2018-08-06T12:12:04.243Z,3012
2018-08-06T12:13:12.870Z,3004
2018-08-06T12:14:21.489Z,3000
2018-08-06T12:15:30.107Z,3004
2018-08-06T12:16:38.729Z,2992
2018-08-06T12:17:47.619Z,2996
2018-08-06T12:18:56.244Z,2996
2018-08-06T12:20:04.861Z,3000
2018-08-06T12:21:13.484Z,3008
2018-08-06T12:22:22.097Z,3004
2018-08-06T12:23:30.724Z,3008
2018-08-06T12:24:39.345Z,3008
2018-08-06T12:25:47.999Z,3012
2018-08-06T12:26:56.960Z,2996
2018-08-06T12:28:05.586Z,2992
2018-08-06T12:29:14.205Z,3000
2018-08-06T12:30:23.089Z,3000
2018-08-06T12:31:31.989Z,3004
2018-08-06T12:32:40.586Z,3004
2018-08-06T12:33:49.212Z,3016
2018-08-06T12:34:57.831Z,3028
2018-08-06T12:36:06.453Z,3020
2018-08-06T12:37:15.068Z,3036
2018-08-06T12:38:23.691Z,3044
2018-08-06T12:39:32.311Z,3048
2018-08-06T12:40:40.936Z,3044
2018-08-06T12:41:49.555Z,3056
2018-08-06T12:42:58.180Z,3032
2018-08-06T12:44:06.801Z,3040
2018-08-06T12:45:16.215Z,3028
2018-08-06T12:46:24.836Z,3048
2018-08-06T12:47:33.456Z,3044
2018-08-06T12:48:42.075Z,3044
2018-08-06T12:49:50.704Z,3048
2018-08-06T12:50:59.324Z,3048
2018-08-06T12:52:07.949Z,3048
2018-08-06T12:53:16.564Z,3044
2018-08-06T12:54:25.205Z,3056
2018-08-06T12:55:33.877Z,3060
2018-08-06T12:56:42.571Z,3056
2018-08-06T12:57:51.209Z,3060
2018-08-06T12:59:00.085Z,3060
2018-08-06T13:00:08.719Z,3064
2018-08-06T13:01:17.337Z,3072
2018-08-06T13:02:25.976Z,3080
2018-08-06T13:03:34.662Z,3076
2018-08-06T13:04:43.307Z,3100
2018-08-06T13:05:51.947Z,3088
2018-08-06T13:07:00.637Z,3096
2018-08-06T13:08:09.267Z,3100
2018-08-06T13:09:17.892Z,3104
2018-08-06T13:10:26.518Z,3112
2018-08-06T13:11:35.138Z,3112
2018-08-06T13:12:43.760Z,3112
2018-08-06T13:13:52.386Z,3104
2018-08-06T13:15:01.003Z,3104
2018-08-06T13:16:09.628Z,3100
2018-08-06T13:17:18.250Z,3092
2018-08-06T13:18:26.912Z,3092
2018-08-06T13:19:35.596Z,3088
2018-08-06T13:20:44.219Z,3088
2018-08-06T13:21:53.102Z,3096
2018-08-06T13:23:01.740Z,3088
2018-08-06T13:24:10.369Z,3088
2018-08-06T13:25:19.359Z,3088
2018-08-06T13:26:27.952Z,3084
2018-08-06T13:27:36.577Z,3084
2018-08-06T13:28:45.465Z,3080
2018-08-06T13:29:54.085Z,3080
2018-08-06T13:31:02.970Z,3084
2018-08-06T13:32:11.594Z,3092
2018-08-06T13:33:20.218Z,3088
2018-08-06T13:34:28.839Z,3084
2018-08-06T13:35:37.483Z,3084
2018-08-06T13:36:46.935Z,3088
2018-08-06T13:37:55.530Z,3096
2018-08-06T13:39:04.150Z,3092
2018-08-06T13:40:12.775Z,3100
2018-08-06T13:41:21.660Z,3092
2018-08-06T13:42:30.282Z,3076
2018-08-06T13:43:39.165Z,3072
2018-08-06T13:44:47.786Z,3076
2018-08-06T13:45:56.410Z,3072
2018-08-06T13:47:05.073Z,3068
2018-08-06T13:48:13.658Z,3068
2018-08-06T13:49:22.279Z,3064
2018-08-06T13:50:30.902Z,3052
2018-08-06T13:51:39.540Z,3032
2018-08-06T13:52:48.266Z,3024
2018-08-06T13:53:56.896Z,3000
2018-08-06T13:55:05.536Z,2988
2018-08-06T13:56:14.197Z,2992
2018-08-06T13:57:22.818Z,2968
2018-08-06T13:58:31.441Z,2968
2018-08-06T13:59:40.071Z,2940
2018-08-06T14:00:48.684Z,2920
2018-08-06T14:01:57.895Z,2904
2018-08-06T14:03:06.514Z,2888
2018-08-06T14:04:15.140Z,2868
2018-08-06T14:05:23.779Z,2848
2018-08-06T14:06:32.394Z,2812
2018-08-06T14:07:41.272Z,2804
2018-08-06T14:08:49.895Z,2796
2018-08-06T14:09:58.818Z,2772
2018-08-06T14:11:07.468Z,2740
2018-08-06T14:12:16.356Z,2708
2018-08-06T14:13:24.983Z,2692
2018-08-06T14:14:33.866Z,2668
2018-08-06T14:15:42.492Z,2660
2018-08-06T14:16:51.485Z,2640
2018-08-06T14:18:00.058Z,2624
2018-08-06T14:19:08.682Z,2608
2018-08-06T14:20:17.296Z,2604
2018-08-06T14:21:26.170Z,2592
2018-08-06T14:22:34.795Z,2580
2018-08-06T14:23:43.680Z,2568
2018-08-06T14:24:52.300Z,2568
2018-08-06T14:26:01.304Z,2548
2018-08-06T14:27:09.801Z,2548
2018-08-06T14:28:18.434Z,2524
2018-08-06T14:29:27.050Z,2504
2018-08-06T14:30:35.677Z,2504
2018-08-06T14:31:44.327Z,2484
2018-08-06T14:32:52.920Z,2452
2018-08-06T14:34:01.544Z,2448
2018-08-06T14:35:10.170Z,2448
2018-08-06T14:36:18.788Z,2428
2018-08-06T14:37:27.413Z,2424
2018-08-06T14:38:36.033Z,2424
2018-08-06T14:39:44.659Z,2424
2018-08-06T14:40:53.281Z,2400
2018-08-06T14:42:01.901Z,2396
2018-08-06T14:43:10.523Z,2388
2018-08-06T14:44:19.408Z,2384
2018-08-06T14:45:28.036Z,2344
2018-08-06T14:46:36.653Z,2376
2018-08-06T14:47:45.279Z,2360
2018-08-06T14:48:54.157Z,2372
2018-08-06T14:50:02.779Z,2380
2018-08-06T14:51:11.396Z,2376
2018-08-06T14:52:20.288Z,2384
2018-08-06T14:53:28.904Z,2352
2018-08-06T14:54:37.531Z,2364
2018-08-06T14:55:46.416Z,2300
2018-08-06T14:56:55.037Z,2216
2018-08-06T14:58:03.667Z,2248
2018-08-06T14:59:12.278Z,2216
2018-08-06T15:00:21.164Z,2264
2018-08-06T15:01:30.043Z,2284
2018-08-06T15:02:38.667Z,2276
2018-08-06T15:03:47.814Z,2260
2018-08-06T15:04:56.436Z,2236
2018-08-06T15:06:05.055Z,2220
2018-08-06T15:07:13.685Z,2220
2018-08-06T15:08:22.302Z,2212
2018-08-06T15:09:30.927Z,2196
2018-08-06T15:10:39.547Z,2184
2018-08-06T15:11:48.445Z,2168
2018-08-06T15:12:57.344Z,2156
2018-08-06T15:14:05.965Z,2148
2018-08-06T15:15:14.630Z,2148
2018-08-06T15:16:23.213Z,2156
2018-08-06T15:17:31.829Z,2124
2018-08-06T15:18:40.451Z,2136
2018-08-06T15:19:49.072Z,2136
2018-08-06T15:20:57.693Z,2128
2018-08-06T15:22:06.318Z,2124
2018-08-06T15:23:14.940Z,2116
2018-08-06T15:24:23.560Z,2120
2018-08-06T15:25:32.462Z,2116
2018-08-06T15:26:41.451Z,2124
2018-08-06T15:27:50.600Z,2120
2018-08-06T15:28:59.216Z,2120
2018-08-06T15:30:07.837Z,2096
2018-08-06T15:31:16.978Z,2128
2018-08-06T15:32:25.599Z,2092
2018-08-06T15:33:34.224Z,2096
2018-08-06T15:34:42.844Z,2096
2018-08-06T15:35:51.468Z,2104
2018-08-06T15:37:00.089Z,2120
2018-08-06T15:38:08.712Z,2112
2018-08-06T15:39:17.337Z,2148